sensor_id;sensor_type;location;lat;lon;timestamp;pressure;altitude;pressure_sealevel;temperature;humidity
12219;BME280;6172;42.646;23.344;2023-01-31T00:00:39;94115.69;;;-2.69;100.00
12219;BME280;6172;42.646;23.344;2023-01-31T00:03:09;94123.63;;;-2.57;100.00
12219;BME280;6172;42.646;23.344;2023-01-31T00:05:36;94129.28;;;-2.74;100.00
12219;BME280;6172;42.646;23.344;2023-01-31T00:08:18;94139.69;;;-2.84;100.00
12219;BME280;6172;42.646;23.344;2023-01-31T00:10:46;94145.13;;;-2.81;100.00
12219;BME280;6172;42.646;23.344;2023-01-31T00:13:13;94151.47;;;-2.70;100.00
12219;BME280;6172;42.646;23.344;2023-01-31T00:15:43;94138.31;;;-2.94;100.00
12219;BME280;6172;42.646;23.344;2023-01-31T00:18:10;94126.78;;;-2.82;100.00
12219;BME280;6172;42.646;23.344;2023-01-31T00:20:38;94138.47;;;-2.87;100.00
12219;BME280;6172;42.646;23.344;2023-01-31T00:23:05;94125.16;;;-2.71;100.00
12219;BME280;6172;42.646;23.344;2023-01-31T00:25:35;94128.59;;;-2.71;100.00
12219;BME280;6172;42.646;23.344;2023-01-31T00:28:03;94123.00;;;-2.66;100.00
12219;BME280;6172;42.646;23.344;2023-01-31T00:30:31;94107.59;;;-2.88;100.00
12219;BME280;6172;42.646;23.344;2023-01-31T00:33:00;94126.34;;;-2.69;100.00
12219;BME280;6172;42.646;23.344;2023-01-31T00:35:42;94135.75;;;-2.44;100.00
12219;BME280;6172;42.646;23.344;2023-01-31T00:38:17;94133.25;;;-2.37;100.00
12219;BME280;6172;42.646;23.344;2023-01-31T00:40:52;94136.84;;;-2.29;100.00
12219;BME280;6172;42.646;23.344;2023-01-31T00:43:26;94140.56;;;-2.34;100.00
12219;BME280;6172;42.646;23.344;2023-01-31T00:46:10;94135.09;;;-2.22;100.00
12219;BME280;6172;42.646;23.344;2023-01-31T00:48:46;94129.34;;;-2.24;100.00
12219;BME280;6172;42.646;23.344;2023-01-31T00:51:15;94126.94;;;-2.29;100.00
12219;BME280;6172;42.646;23.344;2023-01-31T00:53:47;94127.91;;;-2.37;100.00
12219;BME280;6172;42.646;23.344;2023-01-31T00:56:21;94120.31;;;-2.50;100.00
12219;BME280;6172;42.646;23.344;2023-01-31T00:58:55;94113.88;;;-2.34;100.00
12219;BME280;6172;42.646;23.344;2023-01-31T01:01:25;94107.66;;;-2.22;100.00
12219;BME280;6172;42.646;23.344;2023-01-31T01:03:58;94107.88;;;-2.12;100.00
12219;BME280;6172;42.646;23.344;2023-01-31T01:06:30;94104.16;;;-2.07;100.00
12219;BME280;6172;42.646;23.344;2023-01-31T01:09:02;94124.50;;;-2.03;100.00
12219;BME280;6172;42.646;23.344;2023-01-31T01:11:47;94118.41;;;-2.03;100.00
12219;BME280;6172;42.646;23.344;2023-01-31T01:14:17;94136.66;;;-2.05;100.00
12219;BME280;6172;42.646;23.344;2023-01-31T01:16:45;94140.69;;;-2.11;100.00
12219;BME280;6172;42.646;23.344;2023-01-31T01:19:15;94141.19;;;-2.06;100.00
12219;BME280;6172;42.646;23.344;2023-01-31T01:21:45;94137.44;;;-2.05;100.00
12219;BME280;6172;42.646;23.344;2023-01-31T01:24:23;94124.44;;;-2.06;100.00
12219;BME280;6172;42.646;23.344;2023-01-31T01:27:01;94118.00;;;-1.86;100.00
12219;BME280;6172;42.646;23.344;2023-01-31T01:29:30;94118.47;;;-2.00;100.00
12219;BME280;6172;42.646;23.344;2023-01-31T01:32:02;94109.47;;;-1.92;100.00
12219;BME280;6172;42.646;23.344;2023-01-31T01:34:30;94098.38;;;-1.94;100.00
12219;BME280;6172;42.646;23.344;2023-01-31T01:36:58;94098.66;;;-1.80;100.00
12219;BME280;6172;42.646;23.344;2023-01-31T01:39:37;94087.44;;;-1.70;100.00
12219;BME280;6172;42.646;23.344;2023-01-31T01:42:14;94090.94;;;-1.66;100.00
12219;BME280;6172;42.646;23.344;2023-01-31T01:44:52;94085.47;;;-1.53;100.00
12219;BME280;6172;42.646;23.344;2023-01-31T01:47:35;94075.72;;;-1.46;100.00
12219;BME280;6172;42.646;23.344;2023-01-31T01:50:07;94087.66;;;-1.40;100.00
12219;BME280;6172;42.646;23.344;2023-01-31T01:52:43;94078.78;;;-1.25;87.27
12219;BME280;6172;42.646;23.344;2023-01-31T01:55:21;94085.50;;;-1.12;79.91
12219;BME280;6172;42.646;23.344;2023-01-31T01:57:57;94076.56;;;-1.00;75.53
12219;BME280;6172;42.646;23.344;2023-01-31T02:00:33;94075.25;;;-0.87;74.08
12219;BME280;6172;42.646;23.344;2023-01-31T02:03:04;94076.44;;;-0.85;73.46
12219;BME280;6172;42.646;23.344;2023-01-31T02:05:36;94076.63;;;-0.74;74.11
12219;BME280;6172;42.646;23.344;2023-01-31T02:08:05;94059.75;;;-0.78;72.43
12219;BME280;6172;42.646;23.344;2023-01-31T02:10:39;94080.09;;;-0.74;68.55
12219;BME280;6172;42.646;23.344;2023-01-31T02:13:12;94079.19;;;-0.59;67.19
12219;BME280;6172;42.646;23.344;2023-01-31T02:15:43;94088.81;;;-0.54;64.68
12219;BME280;6172;42.646;23.344;2023-01-31T02:18:13;94085.00;;;-0.53;64.20
12219;BME280;6172;42.646;23.344;2023-01-31T02:33:21;94083.94;;;-0.71;65.83
12219;BME280;6172;42.646;23.344;2023-01-31T02:35:59;94069.19;;;-0.84;64.59
12219;BME280;6172;42.646;23.344;2023-01-31T02:38:41;94080.69;;;-0.84;64.87
12219;BME280;6172;42.646;23.344;2023-01-31T02:41:23;94085.66;;;-0.82;64.94
12219;BME280;6172;42.646;23.344;2023-01-31T02:43:58;94090.53;;;-0.88;64.80
12219;BME280;6172;42.646;23.344;2023-01-31T02:46:51;94091.63;;;-0.70;64.13
12219;BME280;6172;42.646;23.344;2023-01-31T02:49:28;94099.16;;;-0.75;65.09
12219;BME280;6172;42.646;23.344;2023-01-31T02:52:11;94091.38;;;-0.84;66.48
12219;BME280;6172;42.646;23.344;2023-01-31T02:54:47;94095.13;;;-0.88;67.91
12219;BME280;6172;42.646;23.344;2023-01-31T02:57:36;94104.09;;;-0.77;69.33
12219;BME280;6172;42.646;23.344;2023-01-31T03:00:05;94125.78;;;-0.82;70.60
12219;BME280;6172;42.646;23.344;2023-01-31T03:02:35;94121.16;;;-0.63;70.71
12219;BME280;6172;42.646;23.344;2023-01-31T03:05:04;94118.72;;;-0.71;71.12
12219;BME280;6172;42.646;23.344;2023-01-31T03:07:34;94118.66;;;-0.75;72.42
12219;BME280;6172;42.646;23.344;2023-01-31T03:10:19;94133.25;;;-0.72;73.70
12219;BME280;6172;42.646;23.344;2023-01-31T03:13:01;94142.72;;;-0.75;75.47
12219;BME280;6172;42.646;23.344;2023-01-31T03:15:43;94148.25;;;-0.87;79.03
12219;BME280;6172;42.646;23.344;2023-01-31T03:18:35;94149.00;;;-0.86;84.05
12219;BME280;6172;42.646;23.344;2023-01-31T03:21:09;94155.06;;;-0.89;87.95
12219;BME280;6172;42.646;23.344;2023-01-31T03:23:43;94145.59;;;-0.87;89.43
12219;BME280;6172;42.646;23.344;2023-01-31T03:26:14;94150.50;;;-0.89;91.26
12219;BME280;6172;42.646;23.344;2023-01-31T03:28:45;94149.81;;;-0.86;92.90
12219;BME280;6172;42.646;23.344;2023-01-31T03:31:21;94154.31;;;-0.90;96.31
12219;BME280;6172;42.646;23.344;2023-01-31T03:33:53;94161.56;;;-0.90;100.00
12219;BME280;6172;42.646;23.344;2023-01-31T03:36:34;94164.94;;;-0.93;100.00
12219;BME280;6172;42.646;23.344;2023-01-31T03:39:12;94164.66;;;-1.07;100.00
12219;BME280;6172;42.646;23.344;2023-01-31T03:41:55;94179.31;;;-1.01;100.00
12219;BME280;6172;42.646;23.344;2023-01-31T03:44:30;94178.88;;;-1.03;100.00
12219;BME280;6172;42.646;23.344;2023-01-31T03:47:04;94173.31;;;-0.95;100.00
12219;BME280;6172;42.646;23.344;2023-01-31T03:49:34;94183.81;;;-1.05;100.00
12219;BME280;6172;42.646;23.344;2023-01-31T03:52:12;94186.31;;;-1.12;100.00
12219;BME280;6172;42.646;23.344;2023-01-31T03:54:54;94190.50;;;-0.96;100.00
12219;BME280;6172;42.646;23.344;2023-01-31T03:57:33;94197.53;;;-1.07;100.00
12219;BME280;6172;42.646;23.344;2023-01-31T04:03:26;94203.81;;;-1.18;100.00
12219;BME280;6172;42.646;23.344;2023-01-31T04:06:21;94204.34;;;-1.28;100.00
12219;BME280;6172;42.646;23.344;2023-01-31T04:08:54;94200.78;;;-1.17;100.00
12219;BME280;6172;42.646;23.344;2023-01-31T04:11:25;94205.19;;;-1.24;100.00
12219;BME280;6172;42.646;23.344;2023-01-31T04:13:54;94198.81;;;-1.20;100.00
12219;BME280;6172;42.646;23.344;2023-01-31T04:16:23;94205.47;;;-1.10;100.00
12219;BME280;6172;42.646;23.344;2023-01-31T04:18:50;94193.09;;;-1.18;100.00
12219;BME280;6172;42.646;23.344;2023-01-31T04:21:21;94213.06;;;-1.12;100.00
12219;BME280;6172;42.646;23.344;2023-01-31T04:23:49;94211.53;;;-1.13;100.00
12219;BME280;6172;42.646;23.344;2023-01-31T04:26:26;94209.91;;;-1.18;100.00
12219;BME280;6172;42.646;23.344;2023-01-31T04:29:00;94218.69;;;-1.36;100.00
12219;BME280;6172;42.646;23.344;2023-01-31T04:31:32;94222.75;;;-1.42;100.00
12219;BME280;6172;42.646;23.344;2023-01-31T04:34:05;94228.88;;;-1.42;100.00
12219;BME280;6172;42.646;23.344;2023-01-31T04:36:56;94226.84;;;-1.48;100.00
12219;BME280;6172;42.646;23.344;2023-01-31T04:39:39;94238.22;;;-1.51;100.00
12219;BME280;6172;42.646;23.344;2023-01-31T04:42:23;94237.09;;;-1.50;100.00
12219;BME280;6172;42.646;23.344;2023-01-31T04:44:51;94235.34;;;-1.58;100.00
12219;BME280;6172;42.646;23.344;2023-01-31T04:47:36;94242.44;;;-1.50;100.00
12219;BME280;6172;42.646;23.344;2023-01-31T04:50:14;94258.97;;;-1.45;100.00
12219;BME280;6172;42.646;23.344;2023-01-31T04:53:01;94270.84;;;-1.42;100.00
12219;BME280;6172;42.646;23.344;2023-01-31T04:55:30;94262.25;;;-1.51;100.00
12219;BME280;6172;42.646;23.344;2023-01-31T04:58:02;94261.03;;;-1.54;100.00
12219;BME280;6172;42.646;23.344;2023-01-31T05:00:35;94266.53;;;-1.47;100.00
12219;BME280;6172;42.646;23.344;2023-01-31T05:03:09;94256.22;;;-1.64;100.00
12219;BME280;6172;42.646;23.344;2023-01-31T05:05:48;94264.06;;;-1.55;100.00
12219;BME280;6172;42.646;23.344;2023-01-31T05:08:19;94252.97;;;-1.57;100.00
12219;BME280;6172;42.646;23.344;2023-01-31T05:11:00;94257.88;;;-1.59;100.00
12219;BME280;6172;42.646;23.344;2023-01-31T05:13:31;94261.38;;;-1.55;100.00
12219;BME280;6172;42.646;23.344;2023-01-31T05:16:07;94250.88;;;-1.48;100.00
12219;BME280;6172;42.646;23.344;2023-01-31T05:18:39;94254.59;;;-1.53;100.00
12219;BME280;6172;42.646;23.344;2023-01-31T05:21:33;94240.69;;;-1.43;100.00
12219;BME280;6172;42.646;23.344;2023-01-31T05:24:20;94242.31;;;-1.38;100.00
12219;BME280;6172;42.646;23.344;2023-01-31T05:26:49;94255.44;;;-1.49;100.00
12219;BME280;6172;42.646;23.344;2023-01-31T05:29:26;94267.69;;;-1.63;100.00
12219;BME280;6172;42.646;23.344;2023-01-31T05:31:59;94281.56;;;-1.58;100.00
12219;BME280;6172;42.646;23.344;2023-01-31T05:34:27;94269.50;;;-1.52;100.00
12219;BME280;6172;42.646;23.344;2023-01-31T05:37:00;94263.38;;;-1.52;100.00
12219;BME280;6172;42.646;23.344;2023-01-31T05:39:31;94273.34;;;-1.49;100.00
12219;BME280;6172;42.646;23.344;2023-01-31T05:42:02;94276.47;;;-1.47;100.00
12219;BME280;6172;42.646;23.344;2023-01-31T05:44:31;94267.31;;;-1.46;100.00
12219;BME280;6172;42.646;23.344;2023-01-31T05:47:02;94270.34;;;-1.48;100.00
12219;BME280;6172;42.646;23.344;2023-01-31T05:49:46;94281.19;;;-1.41;100.00
12219;BME280;6172;42.646;23.344;2023-01-31T05:52:16;94267.75;;;-1.44;100.00
12219;BME280;6172;42.646;23.344;2023-01-31T05:54:46;94277.47;;;-1.36;100.00
12219;BME280;6172;42.646;23.344;2023-01-31T05:57:14;94276.53;;;-1.28;100.00
12219;BME280;6172;42.646;23.344;2023-01-31T05:59:50;94282.75;;;-1.40;100.00
12219;BME280;6172;42.646;23.344;2023-01-31T06:02:21;94273.84;;;-1.28;100.00
12219;BME280;6172;42.646;23.344;2023-01-31T06:04:52;94270.84;;;-1.27;100.00
12219;BME280;6172;42.646;23.344;2023-01-31T06:07:29;94276.94;;;-1.26;100.00
12219;BME280;6172;42.646;23.344;2023-01-31T06:10:04;94274.25;;;-1.26;100.00
12219;BME280;6172;42.646;23.344;2023-01-31T06:12:51;94271.19;;;-1.28;100.00
12219;BME280;6172;42.646;23.344;2023-01-31T06:15:24;94281.25;;;-1.22;100.00
12219;BME280;6172;42.646;23.344;2023-01-31T06:17:53;94291.75;;;-1.13;100.00
12219;BME280;6172;42.646;23.344;2023-01-31T06:20:25;94293.22;;;-1.16;100.00
12219;BME280;6172;42.646;23.344;2023-01-31T06:23:00;94290.88;;;-1.17;100.00
12219;BME280;6172;42.646;23.344;2023-01-31T06:25:32;94308.78;;;-1.02;100.00
12219;BME280;6172;42.646;23.344;2023-01-31T06:28:19;94314.13;;;-1.02;100.00
12219;BME280;6172;42.646;23.344;2023-01-31T06:30:55;94306.00;;;-0.90;100.00
12219;BME280;6172;42.646;23.344;2023-01-31T06:33:39;94321.88;;;-0.97;100.00
12219;BME280;6172;42.646;23.344;2023-01-31T06:36:16;94314.84;;;-1.05;100.00
12219;BME280;6172;42.646;23.344;2023-01-31T06:38:52;94318.38;;;-0.82;100.00
12219;BME280;6172;42.646;23.344;2023-01-31T06:42:00;94308.94;;;-0.76;100.00
12219;BME280;6172;42.646;23.344;2023-01-31T06:44:37;94316.72;;;-0.71;100.00
12219;BME280;6172;42.646;23.344;2023-01-31T06:47:10;94324.94;;;-0.80;100.00
12219;BME280;6172;42.646;23.344;2023-01-31T06:49:42;94322.31;;;-0.76;100.00
12219;BME280;6172;42.646;23.344;2023-01-31T06:52:11;94319.97;;;-0.62;100.00
12219;BME280;6172;42.646;23.344;2023-01-31T06:54:40;94316.97;;;-0.76;100.00
12219;BME280;6172;42.646;23.344;2023-01-31T06:57:07;94347.00;;;-0.67;100.00
12219;BME280;6172;42.646;23.344;2023-01-31T06:59:34;94326.97;;;-0.73;100.00
12219;BME280;6172;42.646;23.344;2023-01-31T07:02:01;94339.94;;;-0.75;100.00
12219;BME280;6172;42.646;23.344;2023-01-31T07:04:34;94340.50;;;-0.66;100.00
12219;BME280;6172;42.646;23.344;2023-01-31T07:07:01;94340.09;;;-0.68;100.00
12219;BME280;6172;42.646;23.344;2023-01-31T07:09:28;94337.97;;;-0.59;100.00
12219;BME280;6172;42.646;23.344;2023-01-31T07:11:55;94347.97;;;-0.56;100.00
12219;BME280;6172;42.646;23.344;2023-01-31T07:14:27;94341.00;;;-0.42;100.00
12219;BME280;6172;42.646;23.344;2023-01-31T07:16:54;94333.81;;;-0.38;100.00
12219;BME280;6172;42.646;23.344;2023-01-31T07:19:22;94344.34;;;-0.48;100.00
12219;BME280;6172;42.646;23.344;2023-01-31T07:21:52;94325.81;;;-0.57;100.00
12219;BME280;6172;42.646;23.344;2023-01-31T07:24:20;94343.53;;;-0.49;100.00
12219;BME280;6172;42.646;23.344;2023-01-31T07:26:46;94342.22;;;-0.39;100.00
12219;BME280;6172;42.646;23.344;2023-01-31T07:29:14;94336.31;;;-0.48;100.00
12219;BME280;6172;42.646;23.344;2023-01-31T07:31:42;94338.41;;;-0.38;100.00
12219;BME280;6172;42.646;23.344;2023-01-31T07:34:09;94339.38;;;-0.27;100.00
12219;BME280;6172;42.646;23.344;2023-01-31T07:36:36;94340.53;;;-0.28;100.00
12219;BME280;6172;42.646;23.344;2023-01-31T07:39:04;94348.53;;;-0.47;100.00
12219;BME280;6172;42.646;23.344;2023-01-31T07:41:31;94334.25;;;-0.36;100.00
12219;BME280;6172;42.646;23.344;2023-01-31T07:43:59;94334.34;;;-0.32;100.00
12219;BME280;6172;42.646;23.344;2023-01-31T07:46:26;94343.25;;;-0.25;100.00
12219;BME280;6172;42.646;23.344;2023-01-31T07:48:55;94335.03;;;-0.35;100.00
12219;BME280;6172;42.646;23.344;2023-01-31T07:51:23;94340.16;;;-0.46;100.00
12219;BME280;6172;42.646;23.344;2023-01-31T07:53:50;94333.06;;;-0.38;100.00
12219;BME280;6172;42.646;23.344;2023-01-31T07:56:19;94334.03;;;-0.27;100.00
12219;BME280;6172;42.646;23.344;2023-01-31T07:58:48;94332.19;;;-0.23;100.00
12219;BME280;6172;42.646;23.344;2023-01-31T08:01:17;94347.16;;;-0.22;100.00
12219;BME280;6172;42.646;23.344;2023-01-31T08:04:03;94330.56;;;-0.28;100.00
12219;BME280;6172;42.646;23.344;2023-01-31T08:06:43;94319.38;;;-0.33;100.00
12219;BME280;6172;42.646;23.344;2023-01-31T08:09:11;94323.28;;;-0.31;100.00
12219;BME280;6172;42.646;23.344;2023-01-31T08:11:40;94329.47;;;-0.27;100.00
12219;BME280;6172;42.646;23.344;2023-01-31T08:14:08;94328.09;;;-0.17;100.00
12219;BME280;6172;42.646;23.344;2023-01-31T08:16:35;94334.16;;;-0.01;100.00
12219;BME280;6172;42.646;23.344;2023-01-31T08:19:03;94325.41;;;0.02;100.00
12219;BME280;6172;42.646;23.344;2023-01-31T08:21:30;94324.09;;;0.15;100.00
12219;BME280;6172;42.646;23.344;2023-01-31T08:23:57;94309.66;;;0.19;100.00
12219;BME280;6172;42.646;23.344;2023-01-31T08:26:28;94309.88;;;0.33;100.00
12219;BME280;6172;42.646;23.344;2023-01-31T08:28:57;94305.03;;;0.65;100.00
12219;BME280;6172;42.646;23.344;2023-01-31T08:31:26;94306.78;;;0.54;100.00
12219;BME280;6172;42.646;23.344;2023-01-31T08:33:54;94311.47;;;0.87;100.00
12219;BME280;6172;42.646;23.344;2023-01-31T08:36:23;94302.03;;;0.96;100.00
12219;BME280;6172;42.646;23.344;2023-01-31T08:38:51;94307.72;;;0.91;100.00
12219;BME280;6172;42.646;23.344;2023-01-31T08:41:20;94305.31;;;0.86;100.00
12219;BME280;6172;42.646;23.344;2023-01-31T08:43:47;94308.69;;;0.79;100.00
12219;BME280;6172;42.646;23.344;2023-01-31T08:46:17;94305.13;;;0.98;100.00
12219;BME280;6172;42.646;23.344;2023-01-31T08:48:44;94307.19;;;1.08;100.00
12219;BME280;6172;42.646;23.344;2023-01-31T08:51:15;94312.81;;;1.00;100.00
12219;BME280;6172;42.646;23.344;2023-01-31T08:53:43;94302.03;;;0.96;100.00
12219;BME280;6172;42.646;23.344;2023-01-31T08:56:12;94302.88;;;0.74;100.00
12219;BME280;6172;42.646;23.344;2023-01-31T08:58:41;94305.47;;;1.23;100.00
12219;BME280;6172;42.646;23.344;2023-01-31T09:01:11;94298.53;;;1.51;100.00
12219;BME280;6172;42.646;23.344;2023-01-31T09:03:40;94307.78;;;1.87;100.00
12219;BME280;6172;42.646;23.344;2023-01-31T09:06:15;94301.00;;;2.36;100.00
12219;BME280;6172;42.646;23.344;2023-01-31T09:08:57;94301.94;;;2.58;100.00
12219;BME280;6172;42.646;23.344;2023-01-31T09:11:28;94301.56;;;3.10;100.00
12219;BME280;6172;42.646;23.344;2023-01-31T09:13:58;94307.31;;;3.91;99.22
12219;BME280;6172;42.646;23.344;2023-01-31T09:16:25;94308.47;;;3.83;89.05
12219;BME280;6172;42.646;23.344;2023-01-31T09:19:02;94286.41;;;3.53;87.17
12219;BME280;6172;42.646;23.344;2023-01-31T09:21:29;94303.94;;;3.18;93.04
12219;BME280;6172;42.646;23.344;2023-01-31T09:23:58;94283.59;;;3.28;91.39
12219;BME280;6172;42.646;23.344;2023-01-31T09:26:26;94283.41;;;3.00;95.15
12219;BME280;6172;42.646;23.344;2023-01-31T09:28:54;94289.75;;;2.74;95.36
12219;BME280;6172;42.646;23.344;2023-01-31T09:31:24;94278.66;;;2.79;97.13
12219;BME280;6172;42.646;23.344;2023-01-31T09:33:51;94289.88;;;3.53;93.10
12219;BME280;6172;42.646;23.344;2023-01-31T09:36:21;94287.19;;;3.57;90.62
12219;BME280;6172;42.646;23.344;2023-01-31T09:38:52;94279.72;;;4.22;86.18
12219;BME280;6172;42.646;23.344;2023-01-31T09:41:26;94253.53;;;4.40;80.04
12219;BME280;6172;42.646;23.344;2023-01-31T09:43:58;94262.72;;;4.07;78.11
12219;BME280;6172;42.646;23.344;2023-01-31T09:46:27;94252.66;;;3.94;82.88
12219;BME280;6172;42.646;23.344;2023-01-31T09:48:58;94247.34;;;4.22;80.19
12219;BME280;6172;42.646;23.344;2023-01-31T09:51:29;94251.22;;;4.52;78.84
12219;BME280;6172;42.646;23.344;2023-01-31T09:53:56;94245.06;;;4.69;75.10
12219;BME280;6172;42.646;23.344;2023-01-31T09:56:30;94246.53;;;5.19;74.83
12219;BME280;6172;42.646;23.344;2023-01-31T09:59:03;94251.16;;;5.22;74.88
12219;BME280;6172;42.646;23.344;2023-01-31T10:01:37;94232.94;;;5.44;72.12
12219;BME280;6172;42.646;23.344;2023-01-31T10:04:19;94245.59;;;5.68;67.39
12219;BME280;6172;42.646;23.344;2023-01-31T10:06:57;94244.13;;;5.39;67.05
12219;BME280;6172;42.646;23.344;2023-01-31T10:09:28;94241.66;;;5.76;65.55
12219;BME280;6172;42.646;23.344;2023-01-31T10:11:59;94240.25;;;5.54;64.23
12219;BME280;6172;42.646;23.344;2023-01-31T10:14:36;94232.69;;;4.79;65.43
12219;BME280;6172;42.646;23.344;2023-01-31T10:17:11;94254.59;;;4.11;71.10
12219;BME280;6172;42.646;23.344;2023-01-31T10:19:46;94246.50;;;4.11;74.89
12219;BME280;6172;42.646;23.344;2023-01-31T10:22:20;94258.06;;;3.97;76.38
12219;BME280;6172;42.646;23.344;2023-01-31T10:24:53;94246.09;;;3.88;76.33
12219;BME280;6172;42.646;23.344;2023-01-31T10:27:34;94260.06;;;4.18;75.71
12219;BME280;6172;42.646;23.344;2023-01-31T10:30:16;94253.06;;;3.96;73.21
12219;BME280;6172;42.646;23.344;2023-01-31T10:32:46;94248.78;;;3.77;73.38
12219;BME280;6172;42.646;23.344;2023-01-31T10:35:21;94252.44;;;3.34;76.82
12219;BME280;6172;42.646;23.344;2023-01-31T10:37:54;94250.47;;;3.27;80.15
12219;BME280;6172;42.646;23.344;2023-01-31T10:40:27;94236.94;;;3.06;80.02
12219;BME280;6172;42.646;23.344;2023-01-31T10:43:02;94247.31;;;3.11;80.95
12219;BME280;6172;42.646;23.344;2023-01-31T10:45:32;94253.03;;;2.99;83.74
12219;BME280;6172;42.646;23.344;2023-01-31T10:48:15;94246.84;;;2.88;85.96
12219;BME280;6172;42.646;23.344;2023-01-31T10:50:55;94247.09;;;2.69;89.05
12219;BME280;6172;42.646;23.344;2023-01-31T10:53:54;94263.47;;;3.11;88.02
12219;BME280;6172;42.646;23.344;2023-01-31T10:56:32;94259.09;;;2.86;91.26
12219;BME280;6172;42.646;23.344;2023-01-31T10:59:03;94257.47;;;2.74;91.52
12219;BME280;6172;42.646;23.344;2023-01-31T11:01:35;94269.09;;;2.85;92.44
12219;BME280;6172;42.646;23.344;2023-01-31T11:04:24;94253.22;;;2.19;97.84
12219;BME280;6172;42.646;23.344;2023-01-31T11:06:52;94260.22;;;1.91;100.00
12219;BME280;6172;42.646;23.344;2023-01-31T11:09:24;94260.50;;;1.79;100.00
12219;BME280;6172;42.646;23.344;2023-01-31T11:11:59;94257.69;;;1.68;100.00
12219;BME280;6172;42.646;23.344;2023-01-31T11:14:27;94249.88;;;1.89;100.00
12219;BME280;6172;42.646;23.344;2023-01-31T11:16:58;94245.00;;;1.65;100.00
12219;BME280;6172;42.646;23.344;2023-01-31T11:19:33;94253.91;;;1.40;100.00
12219;BME280;6172;42.646;23.344;2023-01-31T11:22:03;94258.47;;;1.36;100.00
12219;BME280;6172;42.646;23.344;2023-01-31T11:24:34;94269.16;;;1.32;100.00
12219;BME280;6172;42.646;23.344;2023-01-31T11:27:10;94272.91;;;1.24;100.00
12219;BME280;6172;42.646;23.344;2023-01-31T11:29:46;94263.56;;;1.15;100.00
12219;BME280;6172;42.646;23.344;2023-01-31T11:32:26;94259.69;;;1.12;100.00
12219;BME280;6172;42.646;23.344;2023-01-31T11:34:58;94273.38;;;1.04;100.00
12219;BME280;6172;42.646;23.344;2023-01-31T11:37:26;94270.41;;;1.09;100.00
12219;BME280;6172;42.646;23.344;2023-01-31T11:39:58;94263.53;;;1.11;100.00
12219;BME280;6172;42.646;23.344;2023-01-31T11:42:26;94272.84;;;0.91;100.00
12219;BME280;6172;42.646;23.344;2023-01-31T11:44:55;94260.88;;;0.85;100.00
12219;BME280;6172;42.646;23.344;2023-01-31T11:47:38;94274.72;;;0.87;100.00
12219;BME280;6172;42.646;23.344;2023-01-31T11:50:18;94275.72;;;0.79;100.00
12219;BME280;6172;42.646;23.344;2023-01-31T11:52:45;94276.88;;;0.78;100.00
12219;BME280;6172;42.646;23.344;2023-01-31T11:55:24;94258.09;;;0.52;100.00
12219;BME280;6172;42.646;23.344;2023-01-31T11:57:57;94264.09;;;0.68;100.00
12219;BME280;6172;42.646;23.344;2023-01-31T12:00:31;94270.47;;;0.86;100.00
12219;BME280;6172;42.646;23.344;2023-01-31T12:03:01;94263.81;;;0.76;100.00
12219;BME280;6172;42.646;23.344;2023-01-31T12:05:34;94267.06;;;0.63;100.00
12219;BME280;6172;42.646;23.344;2023-01-31T12:08:04;94267.66;;;0.53;100.00
12219;BME280;6172;42.646;23.344;2023-01-31T12:10:39;94260.25;;;0.43;100.00
12219;BME280;6172;42.646;23.344;2023-01-31T12:13:15;94253.22;;;0.35;100.00
12219;BME280;6172;42.646;23.344;2023-01-31T12:15:55;94264.06;;;0.42;100.00
12219;BME280;6172;42.646;23.344;2023-01-31T12:18:49;94258.88;;;0.30;100.00
12219;BME280;6172;42.646;23.344;2023-01-31T12:21:32;94271.81;;;0.47;100.00
12219;BME280;6172;42.646;23.344;2023-01-31T12:24:23;94261.91;;;0.51;100.00
12219;BME280;6172;42.646;23.344;2023-01-31T12:27:05;94270.84;;;0.58;100.00
12219;BME280;6172;42.646;23.344;2023-01-31T12:32:58;94263.88;;;0.80;100.00
12219;BME280;6172;42.646;23.344;2023-01-31T12:35:43;94259.44;;;0.91;100.00
12219;BME280;6172;42.646;23.344;2023-01-31T12:38:25;94257.00;;;1.12;100.00
12219;BME280;6172;42.646;23.344;2023-01-31T12:41:07;94270.78;;;1.11;100.00
12219;BME280;6172;42.646;23.344;2023-01-31T12:43:52;94279.56;;;1.08;100.00
12219;BME280;6172;42.646;23.344;2023-01-31T12:46:31;94274.16;;;1.04;100.00
12219;BME280;6172;42.646;23.344;2023-01-31T12:49:25;94270.88;;;1.18;100.00
12219;BME280;6172;42.646;23.344;2023-01-31T12:52:09;94255.69;;;0.99;100.00
12219;BME280;6172;42.646;23.344;2023-01-31T12:55:06;94268.13;;;0.84;100.00
12219;BME280;6172;42.646;23.344;2023-01-31T12:57:41;94268.38;;;1.02;100.00
12219;BME280;6172;42.646;23.344;2023-01-31T13:00:25;94270.31;;;1.02;100.00
12219;BME280;6172;42.646;23.344;2023-01-31T13:06:06;94271.50;;;0.78;100.00
12219;BME280;6172;42.646;23.344;2023-01-31T13:08:43;94263.50;;;0.81;100.00
12219;BME280;6172;42.646;23.344;2023-01-31T13:11:16;94273.00;;;0.75;100.00
12219;BME280;6172;42.646;23.344;2023-01-31T13:13:47;94263.75;;;0.73;100.00
12219;BME280;6172;42.646;23.344;2023-01-31T13:16:23;94286.25;;;0.65;100.00
12219;BME280;6172;42.646;23.344;2023-01-31T13:18:55;94284.00;;;0.44;100.00
12219;BME280;6172;42.646;23.344;2023-01-31T13:21:26;94288.53;;;0.40;100.00
12219;BME280;6172;42.646;23.344;2023-01-31T13:23:58;94294.28;;;0.65;100.00
12219;BME280;6172;42.646;23.344;2023-01-31T13:26:30;94283.25;;;0.44;100.00
12219;BME280;6172;42.646;23.344;2023-01-31T13:29:04;94276.44;;;0.50;100.00
12219;BME280;6172;42.646;23.344;2023-01-31T13:31:36;94291.75;;;0.49;100.00
12219;BME280;6172;42.646;23.344;2023-01-31T13:34:10;94296.22;;;0.42;100.00
12219;BME280;6172;42.646;23.344;2023-01-31T13:36:42;94290.88;;;0.19;100.00
12219;BME280;6172;42.646;23.344;2023-01-31T13:39:15;94295.66;;;0.29;100.00
12219;BME280;6172;42.646;23.344;2023-01-31T13:41:45;94308.66;;;0.53;100.00
12219;BME280;6172;42.646;23.344;2023-01-31T13:44:13;94292.41;;;0.43;100.00
12219;BME280;6172;42.646;23.344;2023-01-31T13:46:48;94283.66;;;0.46;100.00
12219;BME280;6172;42.646;23.344;2023-01-31T13:49:24;94305.41;;;0.41;100.00
12219;BME280;6172;42.646;23.344;2023-01-31T13:51:54;94302.47;;;0.49;100.00
12219;BME280;6172;42.646;23.344;2023-01-31T13:54:24;94308.59;;;0.50;100.00